Time;durP1;ratioP1;P1;durP2;ratioP2;P2;SDS_P1;SDS_P2;PMS_P1;PMS_P2;Temp;Humidity;BMP_temperature;BMP_pressure;BME280_temperature;BME280_humidity;BME280_pressure;Samples;Min_cycle;Max_cycle;Signal;HPM_P1;HPM_P2
2021/12/01 00:00:47;;;;;;;0.00;0.00;;;5.20;99.90;;;;;;5000652;28;20073;-88
2021/12/01 00:03:12;;;;;;;1.15;0.10;;;5.20;99.90;;;;;;5001864;28;20030;-87
2021/12/01 00:05:39;;;;;;;0.05;0.00;;;5.20;99.90;;;;;;5019262;28;20390;-88
2021/12/01 00:08:05;;;;;;;0.00;0.00;;;5.20;99.90;;;;;;5019712;28;20018;-88
2021/12/01 00:10:36;;;;;;;0.00;0.00;;;5.30;99.90;;;;;;5001460;28;20045;-88
2021/12/01 00:13:08;;;;;;;0.00;0.00;;;5.30;99.90;;;;;;5003462;28;20044;-88
2021/12/01 00:15:34;;;;;;;0.00;0.00;;;5.30;99.90;;;;;;5005022;28;20026;-88
2021/12/01 00:18:00;;;;;;;0.08;0.00;;;5.20;99.90;;;;;;5019358;28;20037;-87
2021/12/01 00:20:26;;;;;;;0.00;0.00;;;5.30;99.90;;;;;;5007175;28;20021;-88
2021/12/01 00:22:52;;;;;;;0.15;0.00;;;5.30;99.90;;;;;;5004050;28;20176;-88
2021/12/01 00:25:22;;;;;;;0.00;0.00;;;5.30;99.90;;;;;;5001456;28;20037;-87
2021/12/01 00:27:50;;;;;;;0.20;0.10;;;5.30;99.90;;;;;;5018435;28;20018;-88
2021/12/01 00:30:17;;;;;;;0.00;0.00;;;5.20;99.90;;;;;;5020054;28;20052;-88
2021/12/01 00:32:43;;;;;;;0.03;0.03;;;5.20;99.90;;;;;;5019415;28;20018;-87
2021/12/01 00:35:09;;;;;;;0.28;0.00;;;5.10;99.90;;;;;;5022332;28;20037;-88
2021/12/01 00:37:36;;;;;;;0.10;0.10;;;5.10;99.90;;;;;;5020856;28;20037;-88
2021/12/01 00:40:03;;;;;;;0.25;0.10;;;5.00;99.90;;;;;;5020835;28;20104;-89
2021/12/01 00:42:29;;;;;;;0.30;0.00;;;5.00;99.90;;;;;;5033239;28;20030;-89
2021/12/01 00:44:58;;;;;;;0.17;0.00;;;5.00;99.90;;;;;;5034891;28;20018;-88
2021/12/01 00:47:31;;;;;;;0.00;0.00;;;5.00;99.90;;;;;;5038109;28;20125;-88
2021/12/01 00:49:57;;;;;;;0.00;0.00;;;4.90;99.90;;;;;;5038952;28;20006;-88
2021/12/01 00:52:23;;;;;;;1.27;0.10;;;4.90;99.90;;;;;;5038921;28;20031;-88
2021/12/01 00:54:49;;;;;;;0.38;0.10;;;4.90;99.90;;;;;;5041492;28;20029;-87
2021/12/01 00:57:15;;;;;;;0.10;0.03;;;4.90;99.90;;;;;;5038783;28;20100;-88
2021/12/01 00:59:40;;;;;;;0.00;0.00;;;4.90;99.90;;;;;;5021650;28;20112;-88
2021/12/01 01:02:07;;;;;;;0.10;0.10;;;5.00;99.90;;;;;;5013694;28;20033;-88
2021/12/01 01:04:33;;;;;;;0.00;0.00;;;5.00;99.90;;;;;;5000142;28;20029;-88
2021/12/01 01:06:59;;;;;;;0.00;0.00;;;5.00;99.90;;;;;;4999815;28;20495;-87
2021/12/01 01:09:30;;;;;;;0.00;0.00;;;5.10;99.90;;;;;;5000482;28;20032;-88
2021/12/01 01:17:36;;;;;;;0.00;0.00;;;5.10;99.90;;;;;;5017254;28;20053;-88
2021/12/01 01:20:06;;;;;;;0.00;0.00;;;5.20;99.90;;;;;;4999462;28;20025;-87
2021/12/01 01:22:32;;;;;;;0.00;0.00;;;5.30;99.90;;;;;;5019932;28;20064;-88
2021/12/01 01:24:57;;;;;;;0.10;0.10;;;5.30;99.90;;;;;;5017769;28;20033;-88
2021/12/01 01:27:24;;;;;;;0.00;0.00;;;5.40;99.90;;;;;;5018250;28;20014;-88
2021/12/01 01:29:50;;;;;;;0.00;0.00;;;5.40;99.90;;;;;;5036712;28;20081;-88
2021/12/01 01:32:16;;;;;;;0.30;0.20;;;5.40;99.90;;;;;;5019410;28;20045;-88
2021/12/01 01:34:41;;;;;;;0.00;0.00;;;5.50;99.90;;;;;;5009907;28;20026;-89
2021/12/01 01:37:07;;;;;;;0.03;0.03;;;5.60;99.90;;;;;;5018099;28;20062;-88
2021/12/01 01:39:33;;;;;;;0.00;0.00;;;5.50;99.90;;;;;;5017487;28;20025;-88
2021/12/01 01:41:59;;;;;;;0.00;0.00;;;5.60;99.90;;;;;;4998824;28;20025;-88
2021/12/01 01:44:24;;;;;;;0.00;0.00;;;5.60;99.90;;;;;;4999439;28;20029;-89
2021/12/01 01:46:50;;;;;;;0.00;0.00;;;5.60;99.90;;;;;;5022215;28;20053;-88
2021/12/01 01:51:42;;;;;;;0.00;0.00;;;5.60;99.90;;;;;;5038501;28;20536;-88
2021/12/01 01:54:09;;;;;;;0.00;0.00;;;5.70;99.90;;;;;;5018074;28;20018;-88
2021/12/01 01:56:35;;;;;;;0.00;0.00;;;5.60;99.90;;;;;;5019402;28;20018;-88
2021/12/01 01:59:02;;;;;;;0.00;0.00;;;5.60;99.90;;;;;;5009418;28;20025;-88
2021/12/01 02:03:54;;;;;;;0.08;0.08;;;5.70;99.90;;;;;;5015598;28;20125;-89
2021/12/01 02:06:23;;;;;;;0.00;0.00;;;5.70;99.90;;;;;;5013745;28;20471;-88
2021/12/01 02:08:50;;;;;;;0.00;0.00;;;5.70;99.90;;;;;;5051965;28;20020;-89
2021/12/01 02:11:17;;;;;;;0.10;0.03;;;5.70;99.90;;;;;;5030723;28;20098;-88
2021/12/01 02:13:47;;;;;;;0.00;0.00;;;5.70;99.90;;;;;;5028112;28;20021;-88
2021/12/01 02:16:14;;;;;;;0.00;0.00;;;5.70;99.90;;;;;;5000782;28;20026;-89
2021/12/01 02:18:41;;;;;;;0.65;0.10;;;5.70;99.90;;;;;;4999066;28;20029;-88
2021/12/01 02:21:11;;;;;;;0.00;0.00;;;5.70;99.90;;;;;;5003833;28;20108;-88
2021/12/01 02:23:40;;;;;;;0.00;0.00;;;5.70;99.90;;;;;;5009147;28;20137;-86
2021/12/01 02:26:07;;;;;;;0.00;0.00;;;5.70;99.90;;;;;;5009602;28;20406;-87
2021/12/01 02:28:33;;;;;;;0.00;0.00;;;5.80;99.60;;;;;;5005644;28;20076;-88
2021/12/01 02:30:59;;;;;;;0.17;0.10;;;5.90;99.40;;;;;;5024399;28;20026;-86
2021/12/01 02:33:26;;;;;;;0.00;0.00;;;5.80;99.50;;;;;;5017771;28;20034;-87
2021/12/01 02:35:52;;;;;;;0.00;0.00;;;5.90;99.10;;;;;;5007495;28;20022;-87
2021/12/01 02:38:18;;;;;;;0.10;0.10;;;5.90;99.20;;;;;;5022092;28;20490;-88
2021/12/01 02:40:45;;;;;;;0.00;0.00;;;5.90;99.00;;;;;;4998860;28;20471;-89
2021/12/01 02:43:11;;;;;;;0.10;0.00;;;6.00;98.50;;;;;;4999349;28;20026;-87
2021/12/01 02:45:40;;;;;;;0.03;0.03;;;6.00;98.40;;;;;;4999882;28;20472;-87
2021/12/01 02:48:07;;;;;;;0.00;0.00;;;6.00;98.50;;;;;;5019251;28;20026;-88
2021/12/01 02:50:33;;;;;;;0.32;0.00;;;6.00;98.40;;;;;;5004217;28;20038;-88
2021/12/01 02:52:59;;;;;;;0.00;0.00;;;6.00;98.30;;;;;;5003695;28;20340;-89
2021/12/01 02:55:28;;;;;;;0.00;0.00;;;6.00;98.20;;;;;;5017255;28;20033;-89
2021/12/01 02:57:54;;;;;;;0.10;0.00;;;6.00;98.00;;;;;;5001677;28;20033;-88
2021/12/01 03:00:23;;;;;;;0.00;0.00;;;6.00;98.00;;;;;;5015552;28;20050;-88
2021/12/01 03:02:51;;;;;;;0.10;0.00;;;6.00;98.00;;;;;;4998114;28;20026;-87
2021/12/01 03:05:17;;;;;;;0.10;0.10;;;6.00;98.20;;;;;;5031525;28;20045;-88
2021/12/01 03:07:44;;;;;;;0.00;0.00;;;5.90;98.30;;;;;;4997562;28;20033;-88
2021/12/01 03:10:11;;;;;;;0.10;0.00;;;6.00;98.40;;;;;;4997816;28;20026;-89
2021/12/01 03:12:39;;;;;;;1.85;0.00;;;6.00;98.20;;;;;;5015398;28;20128;-88
2021/12/01 03:15:07;;;;;;;0.00;0.00;;;6.00;98.00;;;;;;5015438;28;20026;-88
2021/12/01 03:17:33;;;;;;;0.00;0.00;;;6.00;97.90;;;;;;4997794;28;20054;-88
2021/12/01 03:19:59;;;;;;;0.00;0.00;;;6.10;97.80;;;;;;4998441;28;20026;-88
2021/12/01 03:22:26;;;;;;;0.00;0.00;;;6.00;97.90;;;;;;5002315;28;20014;-89
2021/12/01 03:24:53;;;;;;;0.10;0.00;;;6.00;98.10;;;;;;5019061;28;20086;-90
2021/12/01 03:27:19;;;;;;;0.00;0.00;;;6.00;98.20;;;;;;5012256;28;20475;-88
2021/12/01 03:29:49;;;;;;;0.00;0.00;;;6.00;98.30;;;;;;5017077;28;20097;-87
2021/12/01 03:32:16;;;;;;;0.00;0.00;;;6.00;98.40;;;;;;4998054;28;20560;-86
2021/12/01 03:34:43;;;;;;;0.00;0.00;;;6.00;98.20;;;;;;5005983;28;20072;-88
2021/12/01 03:37:10;;;;;;;0.00;0.00;;;6.00;98.40;;;;;;5031332;28;20022;-86
2021/12/01 03:39:37;;;;;;;0.17;0.10;;;6.00;98.20;;;;;;5017020;28;20090;-88
2021/12/01 03:42:04;;;;;;;0.00;0.00;;;6.00;98.20;;;;;;5015751;28;20049;-88
2021/12/01 03:44:30;;;;;;;0.98;0.00;;;6.00;98.30;;;;;;4999422;28;20040;-87
2021/12/01 03:46:56;;;;;;;0.10;0.08;;;6.10;98.20;;;;;;5015812;28;20494;-88
2021/12/01 03:49:22;;;;;;;0.10;0.10;;;6.10;98.30;;;;;;5000074;28;20029;-88
2021/12/01 03:51:47;;;;;;;0.40;0.22;;;6.10;98.20;;;;;;5000515;28;20022;-88
2021/12/01 03:54:13;;;;;;;0.20;0.10;;;6.10;98.10;;;;;;5012322;28;20048;-88
2021/12/01 03:56:39;;;;;;;0.70;0.10;;;6.10;98.10;;;;;;5022133;28;20046;-88
2021/12/01 03:59:05;;;;;;;0.03;0.00;;;6.10;98.00;;;;;;5032825;28;20041;-88
2021/12/01 04:01:32;;;;;;;0.10;0.10;;;6.10;98.10;;;;;;5010033;28;20033;-89
2021/12/01 04:03:58;;;;;;;0.00;0.00;;;6.10;98.10;;;;;;5038691;28;20022;-90
2021/12/01 04:06:25;;;;;;;0.00;0.00;;;6.20;98.00;;;;;;5055213;22;20069;-79
2021/12/01 04:08:51;;;;;;;0.25;0.00;;;6.20;97.90;;;;;;5062781;28;20025;-79
2021/12/01 04:11:17;;;;;;;0.15;0.00;;;6.20;97.90;;;;;;5027484;28;20048;-79
2021/12/01 04:13:43;;;;;;;0.10;0.10;;;6.20;98.00;;;;;;5043895;28;20052;-80
2021/12/01 04:16:08;;;;;;;0.00;0.00;;;6.20;98.30;;;;;;5025930;28;20025;-79
2021/12/01 04:18:34;;;;;;;0.00;0.00;;;6.20;98.50;;;;;;5025597;28;20033;-78
2021/12/01 04:21:00;;;;;;;0.00;0.00;;;6.10;98.70;;;;;;5042917;28;20362;-78
2021/12/01 04:23:26;;;;;;;0.55;0.13;;;6.10;98.60;;;;;;5043342;28;20018;-77
2021/12/01 04:25:52;;;;;;;0.22;0.10;;;6.10;98.80;;;;;;5042297;28;20033;-77
2021/12/01 04:28:18;;;;;;;7.05;1.42;;;6.10;99.00;;;;;;5043049;28;20080;-78
2021/12/01 04:30:44;;;;;;;0.43;0.20;;;6.10;98.80;;;;;;5040458;28;20052;-78
2021/12/01 04:33:10;;;;;;;0.10;0.10;;;6.20;98.50;;;;;;5023727;28;20045;-78
2021/12/01 04:35:36;;;;;;;0.10;0.10;;;6.20;98.50;;;;;;5023049;28;20022;-79
2021/12/01 04:38:02;;;;;;;0.10;0.10;;;6.20;98.20;;;;;;5038739;28;20124;-78
2021/12/01 04:40:28;;;;;;;0.10;0.10;;;6.30;98.00;;;;;;5024757;28;20032;-77
2021/12/01 04:42:54;;;;;;;0.30;0.08;;;6.30;98.00;;;;;;5039183;28;20033;-77
2021/12/01 04:45:21;;;;;;;0.10;0.10;;;6.30;98.00;;;;;;5039256;28;20037;-78
2021/12/01 04:47:50;;;;;;;0.20;0.10;;;6.30;98.00;;;;;;5021710;28;20067;-78
2021/12/01 04:50:19;;;;;;;0.25;0.08;;;6.30;97.80;;;;;;5039798;28;20025;-78
2021/12/01 04:52:45;;;;;;;0.13;0.10;;;6.30;97.90;;;;;;5039889;28;20033;-78
2021/12/01 04:55:12;;;;;;;0.32;0.10;;;6.30;97.90;;;;;;5039218;28;20026;-77
2021/12/01 04:57:40;;;;;;;0.00;0.00;;;6.30;97.60;;;;;;5038936;28;20055;-77
2021/12/01 05:00:07;;;;;;;0.10;0.10;;;6.40;97.50;;;;;;5038459;28;20025;-78
2021/12/01 05:02:33;;;;;;;0.00;0.00;;;6.40;97.40;;;;;;5020030;28;20029;-78
2021/12/01 05:04:58;;;;;;;0.10;0.10;;;6.30;97.60;;;;;;5040215;28;20018;-79
2021/12/01 05:07:25;;;;;;;0.20;0.10;;;6.30;97.60;;;;;;5039694;28;20029;-78
2021/12/01 05:09:51;;;;;;;0.10;0.10;;;6.30;97.70;;;;;;5048545;28;20025;-80
2021/12/01 05:12:17;;;;;;;0.10;0.10;;;6.40;97.60;;;;;;5058319;28;20374;-79
2021/12/01 05:14:43;;;;;;;0.08;0.08;;;6.40;97.60;;;;;;5059071;28;20032;-80
2021/12/01 05:17:12;;;;;;;0.08;0.08;;;6.40;97.40;;;;;;5053275;28;20099;-79
2021/12/01 05:19:37;;;;;;;0.55;0.17;;;6.40;97.40;;;;;;5021098;28;20470;-80
2021/12/01 05:22:04;;;;;;;0.10;0.00;;;6.40;97.20;;;;;;5039791;28;20087;-79
2021/12/01 05:24:30;;;;;;;0.13;0.13;;;6.40;97.30;;;;;;5043447;28;20025;-82
2021/12/01 05:26:55;;;;;;;0.20;0.20;;;6.40;97.50;;;;;;5043713;28;20025;-79
2021/12/01 05:29:24;;;;;;;0.20;0.10;;;6.30;97.60;;;;;;5020403;28;20362;-76
2021/12/01 05:31:51;;;;;;;0.13;0.10;;;6.30;97.80;;;;;;5039038;28;20033;-78
2021/12/01 05:34:17;;;;;;;0.10;0.10;;;6.30;97.90;;;;;;5038703;28;20025;-77
2021/12/01 05:36:43;;;;;;;0.35;0.10;;;6.30;98.10;;;;;;5019300;28;20569;-78
2021/12/01 05:39:09;;;;;;;0.20;0.17;;;6.20;98.20;;;;;;5037449;28;20025;-77
2021/12/01 05:41:35;;;;;;;0.30;0.20;;;6.30;98.30;;;;;;5036491;28;20029;-77
2021/12/01 05:44:01;;;;;;;0.38;0.05;;;6.20;98.50;;;;;;5020178;28;20029;-78
2021/12/01 05:46:27;;;;;;;0.17;0.17;;;6.30;98.50;;;;;;5037954;28;20017;-77
2021/12/01 05:48:54;;;;;;;0.22;0.22;;;6.20;98.50;;;;;;5048132;28;20525;-78
2021/12/01 05:51:21;;;;;;;0.25;0.25;;;6.20;98.50;;;;;;5048308;28;20028;-78
2021/12/01 05:53:48;;;;;;;1.67;0.28;;;6.20;98.60;;;;;;5045103;28;20029;-78
2021/12/01 05:56:17;;;;;;;0.20;0.10;;;6.20;98.90;;;;;;5039181;28;20056;-77
2021/12/01 05:58:42;;;;;;;1.30;0.30;;;6.20;99.10;;;;;;5034067;28;20026;-77
2021/12/01 06:01:08;;;;;;;0.30;0.25;;;6.20;99.30;;;;;;5018908;28;20030;-78
2021/12/01 06:03:34;;;;;;;1.00;0.45;;;6.10;99.70;;;;;;5020320;28;20030;-77
2021/12/01 06:06:00;;;;;;;0.20;0.20;;;6.10;99.90;;;;;;5020238;28;20067;-78
2021/12/01 06:08:26;;;;;;;3.30;0.30;;;6.00;99.90;;;;;;5019163;28;20588;-77
2021/12/01 06:10:52;;;;;;;0.60;0.20;;;6.00;99.90;;;;;;5020113;28;20041;-78
2021/12/01 06:13:20;;;;;;;0.47;0.28;;;5.90;99.90;;;;;;5019246;28;20097;-78
2021/12/01 06:15:49;;;;;;;0.43;0.10;;;5.90;99.90;;;;;;5000437;28;20030;-77
2021/12/01 06:18:15;;;;;;;0.20;0.20;;;5.90;99.90;;;;;;5016900;28;20080;-78
2021/12/01 06:20:40;;;;;;;0.65;0.40;;;5.80;99.90;;;;;;5018901;28;20030;-79
2021/12/01 06:23:06;;;;;;;0.75;0.30;;;5.80;99.90;;;;;;5017596;28;20076;-78
2021/12/01 06:25:32;;;;;;;0.82;0.30;;;5.80;99.90;;;;;;5020142;28;20106;-77
2021/12/01 06:27:58;;;;;;;1.55;0.25;;;5.80;99.90;;;;;;5016932;28;20032;-78
2021/12/01 06:30:26;;;;;;;0.60;0.10;;;5.70;99.90;;;;;;5029686;28;20022;-78
2021/12/01 06:32:52;;;;;;;1.48;0.40;;;5.70;99.90;;;;;;5037880;28;20029;-79
2021/12/01 06:35:18;;;;;;;0.50;0.45;;;5.70;99.90;;;;;;5037169;28;20386;-78
2021/12/01 06:37:45;;;;;;;0.60;0.50;;;5.70;99.90;;;;;;5037701;28;20033;-79
2021/12/01 06:40:12;;;;;;;0.95;0.55;;;5.70;99.90;;;;;;5037721;28;20034;-78
2021/12/01 06:42:38;;;;;;;1.25;0.60;;;5.70;99.90;;;;;;5038285;28;20022;-79
2021/12/01 06:45:06;;;;;;;0.55;0.52;;;5.60;99.90;;;;;;5019935;28;20029;-79
2021/12/01 06:47:31;;;;;;;1.02;0.40;;;5.60;99.90;;;;;;5035576;28;20508;-78
2021/12/01 06:49:59;;;;;;;2.00;0.68;;;5.60;99.90;;;;;;5043349;28;20021;-79
2021/12/01 06:52:27;;;;;;;1.38;0.65;;;5.60;99.90;;;;;;5044395;28;20489;-78
2021/12/01 06:54:54;;;;;;;1.63;0.77;;;5.70;99.90;;;;;;5037270;28;20029;-80
2021/12/01 06:57:20;;;;;;;1.45;0.60;;;5.70;99.90;;;;;;5037123;28;20362;-79
2021/12/01 06:59:46;;;;;;;1.25;0.60;;;5.70;99.90;;;;;;5018404;28;20033;-77
2021/12/01 07:02:12;;;;;;;0.38;0.30;;;5.70;99.90;;;;;;5037181;28;20525;-79
2021/12/01 07:04:38;;;;;;;0.50;0.40;;;5.80;99.90;;;;;;5020171;28;20079;-79
2021/12/01 07:07:04;;;;;;;1.60;0.50;;;5.80;99.90;;;;;;5036288;28;20037;-78
2021/12/01 07:09:30;;;;;;;0.70;0.60;;;5.80;99.90;;;;;;5044419;28;20018;-79
2021/12/01 07:11:55;;;;;;;0.65;0.40;;;5.80;99.90;;;;;;5036541;28;20017;-79
2021/12/01 07:14:22;;;;;;;2.45;0.70;;;5.90;99.90;;;;;;5045406;28;20093;-79
2021/12/01 07:16:48;;;;;;;2.10;1.15;;;5.90;99.90;;;;;;5047270;28;20025;-78
2021/12/01 07:19:14;;;;;;;3.65;2.20;;;5.90;99.90;;;;;;5025710;28;20037;-77
2021/12/01 07:21:40;;;;;;;1.98;1.13;;;5.90;99.90;;;;;;5039206;28;20486;-77
2021/12/01 07:24:06;;;;;;;3.40;1.10;;;6.00;99.90;;;;;;5020542;28;20715;-77
2021/12/01 07:26:33;;;;;;;1.83;1.30;;;6.00;99.90;;;;;;5040789;28;20072;-78
2021/12/01 07:28:59;;;;;;;1.17;0.60;;;6.10;99.90;;;;;;5031739;28;20049;-82
2021/12/01 07:31:25;;;;;;;0.70;0.50;;;6.10;99.90;;;;;;5046505;28;20029;-82
2021/12/01 07:33:51;;;;;;;1.17;0.80;;;6.20;99.90;;;;;;5029250;28;20026;-82
2021/12/01 07:36:17;;;;;;;1.45;0.93;;;6.20;99.90;;;;;;5048274;28;20039;-83
2021/12/01 07:38:43;;;;;;;1.75;0.80;;;6.20;99.90;;;;;;5049735;28;20033;-81
2021/12/01 07:41:10;;;;;;;1.75;1.05;;;6.30;99.90;;;;;;5032021;28;20441;-83
2021/12/01 07:43:36;;;;;;;1.02;0.40;;;6.30;99.90;;;;;;5015373;28;20093;-82
2021/12/01 07:46:02;;;;;;;2.45;0.70;;;6.40;99.90;;;;;;5028577;28;20080;-83
2021/12/01 07:48:31;;;;;;;1.35;0.50;;;6.40;99.90;;;;;;5043937;28;20028;-81
2021/12/01 07:51:00;;;;;;;0.70;0.55;;;6.40;99.90;;;;;;5045006;28;20044;-82
2021/12/01 07:53:26;;;;;;;0.40;0.40;;;6.40;99.90;;;;;;5026688;28;20056;-82
2021/12/01 07:55:51;;;;;;;1.45;0.73;;;6.50;99.90;;;;;;5025463;28;20454;-84
2021/12/01 07:58:17;;;;;;;0.40;0.20;;;6.40;99.70;;;;;;5040850;28;20025;-82
2021/12/01 08:00:43;;;;;;;0.68;0.20;;;6.50;99.70;;;;;;5047667;28;20024;-83
2021/12/01 08:03:09;;;;;;;0.70;0.40;;;6.40;99.60;;;;;;5046748;28;20030;-82
2021/12/01 08:05:35;;;;;;;0.60;0.60;;;6.40;99.40;;;;;;5030766;28;20025;-82
2021/12/01 08:08:01;;;;;;;0.17;0.17;;;6.40;99.50;;;;;;5047149;28;20061;-82
2021/12/01 08:10:26;;;;;;;0.63;0.60;;;6.40;98.70;;;;;;5032991;28;20025;-83
2021/12/01 08:12:52;;;;;;;1.40;0.45;;;6.50;98.70;;;;;;5050598;28;20033;-81
2021/12/01 08:15:18;;;;;;;2.38;0.50;;;6.40;98.70;;;;;;5049810;28;20545;-82
2021/12/01 08:17:44;;;;;;;0.85;0.45;;;6.40;98.40;;;;;;5031611;28;20116;-83
2021/12/01 08:20:10;;;;;;;1.45;0.60;;;6.50;98.40;;;;;;5048769;28;20090;-81
2021/12/01 08:22:36;;;;;;;1.67;0.55;;;6.50;98.20;;;;;;5046806;28;20026;-81
2021/12/01 08:25:06;;;;;;;0.77;0.30;;;6.60;98.00;;;;;;5023428;28;20037;-82
2021/12/01 08:27:32;;;;;;;1.10;0.30;;;6.60;97.90;;;;;;5013472;28;20037;-82
2021/12/01 08:30:02;;;;;;;2.40;0.52;;;6.70;97.40;;;;;;5013815;28;20492;-82
2021/12/01 08:32:28;;;;;;;0.32;0.20;;;6.80;97.40;;;;;;5016348;28;20026;-82
2021/12/01 08:34:54;;;;;;;0.38;0.20;;;6.70;97.20;;;;;;5045281;28;20034;-81
2021/12/01 08:37:21;;;;;;;1.02;0.65;;;6.80;96.90;;;;;;5054541;28;20021;-82
2021/12/01 08:39:48;;;;;;;1.35;0.47;;;6.70;96.70;;;;;;5070669;28;20029;-83
2021/12/01 08:42:19;;;;;;;0.73;0.50;;;6.80;96.50;;;;;;5050047;28;20046;-82
2021/12/01 08:44:50;;;;;;;0.98;0.55;;;6.80;96.70;;;;;;5055436;28;20025;-83
2021/12/01 08:47:20;;;;;;;0.50;0.30;;;6.80;96.80;;;;;;5058386;28;20028;-86
2021/12/01 08:49:47;;;;;;;0.68;0.40;;;6.90;96.80;;;;;;5054471;28;20038;-83
2021/12/01 08:52:14;;;;;;;0.47;0.38;;;7.10;96.50;;;;;;5053768;28;20036;-83
2021/12/01 08:54:40;;;;;;;2.90;0.68;;;7.30;95.80;;;;;;5052532;28;20024;-83
2021/12/01 08:57:10;;;;;;;0.73;0.47;;;7.50;94.80;;;;;;5055781;28;20025;-83
2021/12/01 08:59:37;;;;;;;1.20;0.60;;;7.60;94.50;;;;;;5074552;28;20025;-84
2021/12/01 09:02:03;;;;;;;1.20;0.70;;;;;;;;;;5049818;28;20029;-83
2021/12/01 09:04:30;;;;;;;0.43;0.30;;;7.90;93.30;;;;;;5058426;28;20020;-80
2021/12/01 09:06:56;;;;;;;0.80;0.47;;;8.00;92.50;;;;;;5049128;28;20049;-80
2021/12/01 09:09:25;;;;;;;0.50;0.50;;;8.10;92.30;;;;;;5049539;28;20181;-83
2021/12/01 09:11:52;;;;;;;0.40;0.40;;;8.20;92.30;;;;;;5050251;28;20029;-84
2021/12/01 09:14:20;;;;;;;0.55;0.52;;;8.30;92.20;;;;;;5055580;28;20031;-85
2021/12/01 09:20:05;;;;;;;0.43;0.43;;;8.40;91.60;;;;;;3353669;26;20064;-82
2021/12/01 09:22:37;;;;;;;0.17;0.17;;;8.50;91.20;;;;;;4976919;28;20061;-83
2021/12/01 09:25:03;;;;;;;0.25;0.20;;;8.60;90.60;;;;;;5010623;28;20026;-82
2021/12/01 09:27:29;;;;;;;0.32;0.28;;;8.70;89.90;;;;;;5026915;28;20021;-82
2021/12/01 09:29:55;;;;;;;0.52;0.20;;;8.90;89.20;;;;;;5026485;28;20022;-82
2021/12/01 09:32:23;;;;;;;0.40;0.20;;;8.90;88.30;;;;;;5030842;28;20026;-83
2021/12/01 09:34:49;;;;;;;0.30;0.30;;;8.90;88.30;;;;;;5036072;28;20029;-83
2021/12/01 09:37:16;;;;;;;0.28;0.20;;;8.90;87.80;;;;;;5050519;28;20009;-84
2021/12/01 09:39:43;;;;;;;0.45;0.30;;;9.00;86.90;;;;;;5051176;28;20377;-81
2021/12/01 09:42:10;;;;;;;0.45;0.40;;;9.00;86.70;;;;;;5031763;28;20044;-80
2021/12/01 09:44:37;;;;;;;0.25;0.25;;;8.80;86.90;;;;;;5031473;28;20022;-81
2021/12/01 09:47:04;;;;;;;0.45;0.30;;;8.70;87.60;;;;;;5030092;28;20036;-81
2021/12/01 09:49:31;;;;;;;0.50;0.38;;;8.60;88.30;;;;;;5031312;28;20374;-80
2021/12/01 09:51:57;;;;;;;0.75;0.50;;;8.60;87.90;;;;;;5049166;28;20030;-80
2021/12/01 09:54:23;;;;;;;0.55;0.50;;;8.60;88.40;;;;;;5032135;28;20053;-82
2021/12/01 09:56:52;;;;;;;1.00;0.60;;;8.60;88.60;;;;;;5051516;28;20098;-82
2021/12/01 09:59:18;;;;;;;1.00;0.60;;;8.60;89.00;;;;;;5030646;28;20029;-82
2021/12/01 10:01:43;;;;;;;1.67;0.40;;;8.80;87.50;;;;;;5031144;28;20037;-81
2021/12/01 10:04:09;;;;;;;2.55;0.30;;;8.90;86.50;;;;;;5045302;28;20478;-81
2021/12/01 10:06:35;;;;;;;0.32;0.30;;;9.10;85.60;;;;;;5035600;28;20071;-81
2021/12/01 10:09:05;;;;;;;0.85;0.85;;;9.40;84.30;;;;;;5056815;22;20152;-88
2021/12/01 10:11:41;;;;;;;0.65;0.52;;;10.00;83.30;;;;;;5031863;28;20492;-86
2021/12/01 10:14:19;;;;;;;0.60;0.60;;;10.30;80.30;;;;;;5040718;28;20045;-87
2021/12/01 10:16:47;;;;;;;0.43;0.30;;;10.50;79.20;;;;;;5039564;28;20331;-87
2021/12/01 10:19:14;;;;;;;0.55;0.40;;;10.50;78.50;;;;;;5039083;28;20021;-86
2021/12/01 10:21:41;;;;;;;1.45;0.65;;;10.60;76.90;;;;;;5041407;28;20493;-84
2021/12/01 10:24:14;;;;;;;0.40;0.30;;;10.60;77.30;;;;;;5034350;28;20026;-83
2021/12/01 10:26:46;;;;;;;0.43;0.40;;;10.70;75.60;;;;;;5024394;28;20021;-85
2021/12/01 10:29:15;;;;;;;2.33;0.50;;;10.80;75.70;;;;;;5013295;28;20145;-83
2021/12/01 10:31:51;;;;;;;1.65;0.60;;;10.80;74.60;;;;;;5040782;28;20025;-82
2021/12/01 10:34:17;;;;;;;0.50;0.47;;;10.80;74.90;;;;;;5043641;28;20056;-82
2021/12/01 10:36:48;;;;;;;0.50;0.47;;;10.70;75.20;;;;;;5044375;28;20021;-84
2021/12/01 10:39:14;;;;;;;0.80;0.50;;;10.60;74.60;;;;;;5044807;28;20025;-83
2021/12/01 10:41:42;;;;;;;0.45;0.40;;;10.60;75.30;;;;;;5047160;28;20397;-84
2021/12/01 10:44:10;;;;;;;0.75;0.20;;;10.50;74.00;;;;;;5038381;28;20025;-84
2021/12/01 10:46:53;;;;;;;0.35;0.30;;;10.50;74.30;;;;;;5039757;28;20017;-83
2021/12/01 10:49:33;;;;;;;0.60;0.50;;;10.30;75.00;;;;;;5020332;28;20029;-85
2021/12/01 10:51:59;;;;;;;1.30;0.40;;;10.20;74.80;;;;;;5037857;28;20033;-84
2021/12/01 10:54:26;;;;;;;0.60;0.50;;;10.20;75.30;;;;;;5037412;28;20029;-85
2021/12/01 10:57:21;;;;;;;0.68;0.47;;;10.10;75.30;;;;;;5036742;28;20080;-84
2021/12/01 10:59:51;;;;;;;0.57;0.57;;;10.00;75.60;;;;;;5036908;28;20392;-84
2021/12/01 11:02:19;;;;;;;1.55;0.75;;;10.00;76.20;;;;;;5041276;28;20061;-85
2021/12/01 11:04:52;;;;;;;1.05;0.90;;;9.90;76.90;;;;;;5036426;28;20026;-83
2021/12/01 11:07:24;;;;;;;1.45;0.73;;;9.90;76.70;;;;;;5054398;28;20033;-84
2021/12/01 11:10:10;;;;;;;0.47;0.47;;;10.00;76.60;;;;;;5045180;28;20043;-83
2021/12/01 11:12:36;;;;;;;0.38;0.25;;;10.10;76.80;;;;;;5056946;28;20032;-83
2021/12/01 11:15:27;;;;;;;0.20;0.20;;;10.10;76.10;;;;;;5063099;28;20025;-85
2021/12/01 11:17:55;;;;;;;0.40;0.30;;;10.20;76.10;;;;;;5065533;28;20430;-83
2021/12/01 11:20:49;;;;;;;0.52;0.40;;;10.10;76.30;;;;;;5056565;28;20026;-83
2021/12/01 11:23:21;;;;;;;0.40;0.40;;;10.20;76.90;;;;;;5026137;28;20037;-84
2021/12/01 11:26:07;;;;;;;1.75;0.60;;;10.20;77.10;;;;;;5044369;28;20450;-84
2021/12/01 11:28:37;;;;;;;2.78;1.23;;;10.30;75.80;;;;;;5038904;28;20025;-83
2021/12/01 11:31:07;;;;;;;0.65;0.63;;;10.30;76.20;;;;;;5040523;28;20057;-83
2021/12/01 11:33:33;;;;;;;0.55;0.55;;;10.30;76.70;;;;;;5038283;28;20060;-82
2021/12/01 11:36:05;;;;;;;0.35;0.35;;;10.20;77.00;;;;;;5056009;28;20033;-84
2021/12/01 11:38:32;;;;;;;0.40;0.40;;;10.10;77.70;;;;;;5041307;28;20109;-84
2021/12/01 11:40:58;;;;;;;0.85;0.55;;;10.10;77.30;;;;;;5047748;28;20033;-82
2021/12/01 11:43:29;;;;;;;0.63;0.52;;;10.00;77.70;;;;;;5064949;28;20048;-83
2021/12/01 11:45:55;;;;;;;2.17;1.25;;;9.90;78.00;;;;;;5062558;28;20075;-83
2021/12/01 11:48:28;;;;;;;3.80;2.38;;;9.80;78.60;;;;;;5063807;28;20362;-83
2021/12/01 11:50:53;;;;;;;;;;;9.80;79.30;;;;;;5061735;28;20073;-84
2021/12/01 11:53:36;;;;;;;7.07;3.35;;;9.70;79.50;;;;;;5047839;28;19905;-83
2021/12/01 11:56:11;;;;;;;1.17;1.08;;;9.70;79.90;;;;;;5043724;28;20032;-84
2021/12/01 11:59:12;;;;;;;1.20;1.10;;;9.70;80.20;;;;;;5023904;28;20037;-84
2021/12/01 12:01:50;;;;;;;0.50;0.40;;;9.70;80.70;;;;;;5041957;28;20481;-85
2021/12/01 12:04:26;;;;;;;1.15;0.30;;;9.70;80.20;;;;;;5024374;28;20045;-85
2021/12/01 12:07:02;;;;;;;2.25;1.50;;;9.60;80.60;;;;;;5023399;28;20040;-85
2021/12/01 12:09:29;;;;;;;0.60;0.60;;;9.70;80.70;;;;;;5029984;28;20405;-84
2021/12/01 12:12:20;;;;;;;1.27;0.85;;;9.70;80.90;;;;;;5049110;28;20033;-84
2021/12/01 12:14:46;;;;;;;1.20;0.40;;;9.70;81.10;;;;;;5042935;28;20044;-83
2021/12/01 12:17:18;;;;;;;1.20;0.63;;;9.70;81.00;;;;;;5024571;28;20022;-83
2021/12/01 12:19:51;;;;;;;0.68;0.50;;;9.70;81.40;;;;;;5048724;28;20089;-81
2021/12/01 12:22:20;;;;;;;;;;;9.80;81.30;;;;;;5038422;28;20033;-84
2021/12/01 12:24:53;;;;;;;0.70;0.50;;;9.80;81.20;;;;;;5048050;28;20004;-83
2021/12/01 12:27:36;;;;;;;0.60;0.60;;;9.90;81.50;;;;;;5049341;28;20025;-84
2021/12/01 12:30:16;;;;;;;0.30;0.30;;;9.90;81.20;;;;;;5052543;28;20069;-83
2021/12/01 12:32:44;;;;;;;1.35;0.55;;;9.90;81.50;;;;;;5049954;28;20017;-83
2021/12/01 12:35:16;;;;;;;0.38;0.38;;;9.90;81.60;;;;;;5029673;28;20039;-84
2021/12/01 12:37:43;;;;;;;0.73;0.50;;;9.90;81.60;;;;;;5033534;28;20076;-84
2021/12/01 12:40:29;;;;;;;0.63;0.40;;;9.90;81.90;;;;;;5045048;28;20092;-83
2021/12/01 12:43:10;;;;;;;0.55;0.32;;;9.90;81.70;;;;;;5045073;28;20030;-81
2021/12/01 12:45:58;;;;;;;0.43;0.40;;;10.00;81.40;;;;;;5048848;28;20037;-84
2021/12/01 12:48:34;;;;;;;0.65;0.40;;;10.00;81.40;;;;;;5051684;28;19998;-83
2021/12/01 12:51:25;;;;;;;1.10;0.80;;;10.10;81.00;;;;;;5046927;28;20072;-84
2021/12/01 12:54:16;;;;;;;1.00;0.65;;;10.10;81.40;;;;;;5038610;28;20049;-84
2021/12/01 12:56:46;;;;;;;1.38;0.52;;;10.10;81.60;;;;;;5016965;28;20547;-84
2021/12/01 12:59:28;;;;;;;0.60;0.40;;;10.10;81.30;;;;;;5021679;28;20191;-84
2021/12/01 13:02:15;;;;;;;;;;;10.20;81.20;;;;;;5010155;28;20030;-84
2021/12/01 13:04:58;;;;;;;0.30;0.30;;;10.20;81.30;;;;;;5020018;28;20266;-84
2021/12/01 13:07:35;;;;;;;0.20;0.20;;;10.20;81.30;;;;;;5021538;28;20026;-84
2021/12/01 13:10:22;;;;;;;0.52;0.28;;;10.20;81.20;;;;;;5027257;28;20172;-84
2021/12/01 13:13:02;;;;;;;0.50;0.20;;;10.30;80.80;;;;;;5060338;28;20388;-83
2021/12/01 13:15:38;;;;;;;0.32;0.30;;;10.30;80.40;;;;;;5042100;28;20036;-84
2021/12/01 13:18:10;;;;;;;2.50;0.45;;;10.30;80.30;;;;;;5060289;28;20032;-83